메인 페이지
METAR-TAF:

METAR-TAF

공항 :

칼즈배드, 캘리포니아, 미국

위도: 33-07-48N, 경도: 117-16-33W, 고도: 100m

현재 날씨관측

예보는 18분 전, 20:16시(UTC)에 발표되었습니다.
9kt, 순간 최대 풍속 17kt남서풍과 북서풍을 오가는
온도 19°C
습도 68%
기압 1016 hPa
시정: 16.1km
고도 1600ft 상공 구름 많음

METAR: KCRQ 132016Z 26009G17KT 230V310 10SM BKN016 19/13 A2999 RMK AO2 T01890133

시각: 13:34 (20:34 UTC)

예보

예보는 3 시간 10분 전, 17:24시(UTC)에 발표되었습니다.
예보 대상 시간: 13일 18시부터 14일 18시까지 (UTC)
서남서6kt
시정: 10km
고도 1500ft 상공 구름 많음
13일 2030시부터 (UTC)
서남서8kt
시정: 10km
고도 1700ft 상공 구름 보통
14일 0030시부터 (UTC)
5kt
시정: 10km
고도 1200ft 상공 흐림
14일 0600시부터 (UTC)
여러 방향의 바람 3kt
시정: 8.0km
고도 700ft 상공 흐림
박무
14일 1600시부터 (UTC)
여러 방향의 바람 5kt
시정: 9.7km
고도 1200ft 상공 흐림
박무,

TAF: KCRQ 131724Z 1318/1418 25006KT P6SM BKN015 FM132030 25008KT P6SM SCT017 FM140030 26005KT P6SM OVC012 FM140600 VRB03KT 5SM BR OVC007 FM141600 VRB05KT 6SM BR OVC012

4,000개 이상의 공항 관측 자료 및 예보 (METAR 및 TAF 보고).

지도상에서 검색 가능한 기상관측소가 노란 점과 빨간 점으로 표시되어 있습니다.

기상관측소 명을 보려면 표시 위로 마우스를 이동하세요.

날씨 관측과 예보를 보려면 클릭하세요.

지도 변경 : 확대하려면 엑스 표시가 있는 녹색 버튼, 축소하려면 빼기 표시가 있는 녹색 버튼, 다음 페이지의 지도를 보려면 녹색 화살표를 클릭하세요.


METAR-TAF: